createdAt,value
2018-01-10T00:00:42.307Z,96043.13
2018-01-10T00:03:09.733Z,96034.22
2018-01-10T00:05:37.072Z,96042.91
2018-01-10T00:08:04.488Z,96030.97
2018-01-10T00:10:31.852Z,96025.48
2018-01-10T00:12:59.264Z,96019.25
2018-01-10T00:15:26.641Z,96010.16
2018-01-10T00:17:54.062Z,95995.16
2018-01-10T00:20:21.424Z,95995.19
2018-01-10T00:22:48.948Z,95975.80
2018-01-10T00:25:16.286Z,95976.97
2018-01-10T00:27:43.702Z,95986.81
2018-01-10T00:30:11.058Z,95995.94
2018-01-10T00:32:38.454Z,96003.49
2018-01-10T00:35:05.849Z,95976.61
2018-01-10T00:37:33.203Z,95974.11
2018-01-10T00:40:00.558Z,95976.93
2018-01-10T00:42:27.962Z,95987.56
2018-01-10T00:44:55.353Z,95979.81
2018-01-10T00:47:22.727Z,95963.36
2018-01-10T00:49:50.236Z,95953.66
2018-01-10T00:52:17.638Z,95971.85
2018-01-10T00:54:44.990Z,95973.70
2018-01-10T00:57:12.466Z,95972.21
2018-01-10T00:59:39.816Z,95970.09
2018-01-10T01:02:07.235Z,95969.56
2018-01-10T01:04:34.590Z,95965.59
2018-01-10T01:07:02.000Z,95965.98
2018-01-10T01:09:29.385Z,95962.33
2018-01-10T01:11:56.758Z,95953.81
2018-01-10T01:14:24.229Z,95957.01
2018-01-10T01:16:51.601Z,95942.50
2018-01-10T01:19:19.027Z,95933.23
2018-01-10T01:21:46.432Z,95928.09
2018-01-10T01:24:13.798Z,95922.91
2018-01-10T01:26:41.261Z,95922.44
2018-01-10T01:29:08.665Z,95916.91
2018-01-10T01:31:36.039Z,95919.36
2018-01-10T01:34:03.430Z,95907.27
2018-01-10T01:36:30.783Z,95905.97
2018-01-10T01:38:58.153Z,95908.03
2018-01-10T01:41:25.567Z,95903.84
2018-01-10T01:43:52.974Z,95901.95
2018-01-10T01:46:20.344Z,95896.10
2018-01-10T01:48:47.747Z,95896.85
2018-01-10T01:51:15.189Z,95890.64
2018-01-10T01:53:42.538Z,95875.88
2018-01-10T01:56:09.916Z,95874.94
2018-01-10T01:58:37.357Z,95868.27
2018-01-10T02:01:04.706Z,95876.59
2018-01-10T02:03:32.103Z,95876.64
2018-01-10T02:05:59.469Z,95877.55
2018-01-10T02:08:26.875Z,95878.16
2018-01-10T02:10:54.377Z,95874.58
2018-01-10T02:13:21.747Z,95878.16
2018-01-10T02:15:49.117Z,95869.77
2018-01-10T02:18:16.538Z,95867.34
2018-01-10T02:20:43.931Z,95864.89
2018-01-10T02:23:11.333Z,95856.76
2018-01-10T02:25:38.795Z,95844.72
2018-01-10T02:28:06.148Z,95842.31
2018-01-10T02:30:33.546Z,95846.91
2018-01-10T02:33:00.887Z,95842.77
2018-01-10T02:35:28.295Z,95836.90
2018-01-10T02:37:55.696Z,95820.95
2018-01-10T02:40:23.061Z,95833.36
2018-01-10T02:42:50.491Z,95823.33
2018-01-10T02:45:17.919Z,95808.94
2018-01-10T02:47:45.268Z,95812.60
2018-01-10T02:50:12.637Z,95817.19
2018-01-10T02:52:40.020Z,95813.75
2018-01-10T02:55:07.489Z,95810.89
2018-01-10T02:57:34.901Z,95815.63
2018-01-10T03:00:02.295Z,95823.63
2018-01-10T03:02:29.706Z,95817.16
2018-01-10T03:04:57.130Z,95816.72
2018-01-10T03:07:24.533Z,95812.70
2018-01-10T03:09:51.929Z,95816.87
2018-01-10T03:12:19.314Z,95814.83
2018-01-10T03:14:46.715Z,95796.83
2018-01-10T03:17:14.110Z,95807.98
2018-01-10T03:19:41.535Z,95811.97
2018-01-10T03:22:08.923Z,95812.05
2018-01-10T03:24:36.290Z,95808.28
2018-01-10T03:27:03.676Z,95804.70
2018-01-10T03:29:31.033Z,95796.90
2018-01-10T03:31:58.488Z,95793.69
2018-01-10T03:34:25.889Z,95788.19
2018-01-10T03:36:53.289Z,95784.12
2018-01-10T03:39:20.647Z,95791.70
2018-01-10T03:41:47.992Z,95783.52
2018-01-10T03:44:15.412Z,95791.88
2018-01-10T03:46:42.838Z,95789.99
2018-01-10T03:49:10.238Z,95800.17
2018-01-10T03:51:37.646Z,95799.70
2018-01-10T03:54:05.006Z,95794.92
2018-01-10T03:56:32.395Z,95790.05
2018-01-10T03:59:00.107Z,95780.00
2018-01-10T04:01:27.527Z,95782.92
2018-01-10T04:03:54.973Z,95784.04
2018-01-10T04:06:22.338Z,95786.67
2018-01-10T04:08:49.707Z,95790.91
2018-01-10T04:11:17.118Z,95784.51
2018-01-10T04:13:44.485Z,95781.92
2018-01-10T04:16:11.884Z,95791.44
2018-01-10T04:18:39.229Z,95784.58
2018-01-10T04:21:06.625Z,95793.17
2018-01-10T04:23:33.995Z,95768.47
2018-01-10T04:26:01.379Z,95775.23
2018-01-10T04:28:28.793Z,95767.85
2018-01-10T04:30:56.187Z,95764.63
2018-01-10T04:33:23.651Z,95752.69
2018-01-10T04:35:51.217Z,95759.35
2018-01-10T04:40:52.379Z,95753.08
2018-01-10T04:43:19.826Z,95754.08
2018-01-10T04:45:47.259Z,95751.03
2018-01-10T04:48:14.623Z,95735.71
2018-01-10T04:50:42.034Z,95730.06
2018-01-10T04:53:09.576Z,95708.29
2018-01-10T04:55:37.126Z,95711.70
2018-01-10T04:58:04.576Z,95703.94
2018-01-10T05:00:32.057Z,95703.23
2018-01-10T05:02:59.530Z,95698.69
2018-01-10T05:05:26.972Z,95695.45
2018-01-10T05:07:54.380Z,95697.00
2018-01-10T05:10:21.736Z,95703.43
2018-01-10T05:12:49.266Z,95692.09
2018-01-10T05:15:16.672Z,95694.16
2018-01-10T05:17:44.038Z,95684.50
2018-01-10T05:20:11.491Z,95677.50
2018-01-10T05:22:38.891Z,95674.88
2018-01-10T05:25:06.308Z,95680.36
2018-01-10T05:27:33.676Z,95685.47
2018-01-10T05:30:01.128Z,95676.59
2018-01-10T05:32:28.500Z,95676.00
2018-01-10T05:34:56.005Z,95661.82
2018-01-10T05:37:23.394Z,95662.58
2018-01-10T05:39:50.807Z,95644.20
2018-01-10T05:42:18.691Z,95642.89
2018-01-10T05:44:46.072Z,95631.52
2018-01-10T05:47:13.550Z,95635.52
2018-01-10T05:49:41.000Z,95631.72
2018-01-10T05:52:08.417Z,95637.80
2018-01-10T05:54:35.839Z,95645.56
2018-01-10T05:57:03.211Z,95648.02
2018-01-10T05:59:30.590Z,95655.95
2018-01-10T06:01:58.059Z,95671.87
2018-01-10T06:04:25.490Z,95670.95
2018-01-10T06:06:52.895Z,95669.98
2018-01-10T06:09:20.250Z,95664.69
2018-01-10T06:11:47.671Z,95650.11
2018-01-10T06:14:15.071Z,95653.52
2018-01-10T06:16:42.510Z,95652.56
2018-01-10T06:19:09.909Z,95662.78
2018-01-10T06:21:37.319Z,95668.47
2018-01-10T06:24:04.751Z,95684.00
2018-01-10T06:26:32.194Z,95666.42
2018-01-10T06:28:59.602Z,95663.55
2018-01-10T06:31:26.979Z,95657.14
2018-01-10T06:33:54.403Z,95654.69
2018-01-10T06:36:21.840Z,95635.93
2018-01-10T06:38:49.349Z,95628.55
2018-01-10T06:41:16.763Z,95628.93
2018-01-10T06:43:44.256Z,95625.31
2018-01-10T06:46:11.630Z,95638.97
2018-01-10T06:48:39.142Z,95643.52
2018-01-10T06:51:06.802Z,95630.44
2018-01-10T06:53:34.431Z,95651.47
2018-01-10T06:56:01.905Z,95660.38
2018-01-10T06:58:29.415Z,95657.73
2018-01-10T07:00:57.086Z,95653.73
2018-01-10T07:03:24.674Z,95633.84
2018-01-10T07:05:52.173Z,95628.53
2018-01-10T07:08:19.856Z,95634.00
2018-01-10T07:10:47.866Z,95630.00
2018-01-10T07:13:15.646Z,95606.52
2018-01-10T07:15:43.107Z,95592.66
2018-01-10T07:18:10.673Z,95613.49
2018-01-10T07:20:38.180Z,95610.27
2018-01-10T07:23:05.633Z,95614.08
2018-01-10T07:25:33.245Z,95608.95
2018-01-10T07:28:00.912Z,95602.16
2018-01-10T07:30:28.513Z,95609.13
2018-01-10T07:32:56.024Z,95605.32
2018-01-10T07:35:23.600Z,95605.17
2018-01-10T07:37:52.483Z,95606.23
2018-01-10T07:40:19.969Z,95606.44
2018-01-10T07:42:47.629Z,95599.77
2018-01-10T07:45:15.395Z,95581.00
2018-01-10T07:47:43.044Z,95568.28
2018-01-10T07:50:12.158Z,95566.56
2018-01-10T07:52:39.585Z,95561.64
2018-01-10T07:55:07.290Z,95557.61
2018-01-10T07:57:35.976Z,95540.22
2018-01-10T08:00:13.668Z,95545.23
2018-01-10T08:02:42.226Z,95543.05
2018-01-10T08:05:09.903Z,95530.87
2018-01-10T08:07:38.350Z,95520.37
2018-01-10T08:10:06.017Z,95509.20
2018-01-10T08:12:33.667Z,95507.86
2018-01-10T08:15:01.452Z,95500.45
2018-01-10T08:17:30.894Z,95500.50
2018-01-10T08:20:10.284Z,95486.45
2018-01-10T08:22:38.565Z,95504.59
2018-01-10T08:25:06.779Z,95505.37
2018-01-10T08:27:35.139Z,95501.33
2018-01-10T08:30:05.492Z,95487.96
2018-01-10T08:32:34.769Z,95473.64
2018-01-10T08:35:09.100Z,95465.37
2018-01-10T08:37:38.388Z,95483.91
2018-01-10T08:40:07.000Z,95481.74
2018-01-10T08:42:38.148Z,95460.50
2018-01-10T08:45:06.457Z,95466.58
2018-01-10T08:47:34.806Z,95473.37
2018-01-10T08:50:02.398Z,95454.24
2018-01-10T08:52:32.146Z,95463.76
2018-01-10T08:54:59.818Z,95459.88
2018-01-10T08:57:27.362Z,95460.39
2018-01-10T08:59:55.748Z,95441.23
2018-01-10T09:02:23.398Z,95440.45
2018-01-10T09:04:51.048Z,95434.13
2018-01-10T09:07:18.602Z,95428.19
2018-01-10T09:09:47.793Z,95438.04
2018-01-10T09:12:15.415Z,95432.35
2018-01-10T09:14:50.026Z,95442.94
2018-01-10T09:17:17.489Z,95436.87
2018-01-10T09:19:46.044Z,95435.13
2018-01-10T09:22:16.800Z,95408.66
2018-01-10T09:24:44.615Z,95399.05
2018-01-10T09:27:13.720Z,95408.93
2018-01-10T09:29:41.880Z,95397.45
2018-01-10T09:34:49.221Z,95386.05
2018-01-10T09:40:04.781Z,95388.80
2018-01-10T09:42:34.564Z,95373.28
2018-01-10T09:45:04.008Z,95386.42
2018-01-10T09:47:31.827Z,95376.58
2018-01-10T09:50:00.937Z,95359.51
2018-01-10T09:52:28.464Z,95341.14
2018-01-10T09:54:57.485Z,95341.94
2018-01-10T09:57:25.869Z,95346.13
2018-01-10T09:59:54.014Z,95330.91
2018-01-10T10:02:22.470Z,95318.31
2018-01-10T10:04:50.655Z,95322.12
2018-01-10T10:07:32.999Z,95306.17
2018-01-10T10:10:01.396Z,95305.63
2018-01-10T10:12:29.216Z,95299.69
2018-01-10T10:14:57.533Z,95300.45
2018-01-10T10:17:25.101Z,95296.31
2018-01-10T10:19:52.830Z,95287.13
2018-01-10T10:22:22.072Z,95285.35
2018-01-10T10:24:51.022Z,95276.63
2018-01-10T10:27:22.496Z,95264.80
2018-01-10T10:29:53.657Z,95262.38
2018-01-10T10:32:23.745Z,95256.84
2018-01-10T10:34:51.464Z,95243.83
2018-01-10T10:40:05.893Z,95238.42
2018-01-10T10:42:33.742Z,95225.84
2018-01-10T10:45:01.430Z,95229.02
2018-01-10T10:47:29.025Z,95211.32
2018-01-10T10:49:56.635Z,95202.16
2018-01-10T10:52:27.395Z,95206.19
2018-01-10T10:54:56.148Z,95202.64
2018-01-10T10:57:24.505Z,95184.22
2018-01-10T10:59:52.062Z,95184.06
2018-01-10T11:02:19.841Z,95170.05
2018-01-10T11:04:47.496Z,95168.53
2018-01-10T11:07:18.512Z,95161.57
2018-01-10T11:09:46.544Z,95167.19
2018-01-10T11:12:14.669Z,95179.38
2018-01-10T11:14:42.273Z,95167.95
2018-01-10T11:17:10.527Z,95158.77
2018-01-10T11:19:38.114Z,95147.44
2018-01-10T11:22:06.021Z,95150.12
2018-01-10T11:24:33.652Z,95155.80
2018-01-10T11:27:01.335Z,95145.45
2018-01-10T11:29:30.190Z,95148.34
2018-01-10T11:31:57.673Z,95155.64
2018-01-10T11:36:55.992Z,95148.38
2018-01-10T11:39:24.775Z,95140.37
2018-01-10T11:41:52.834Z,95141.14
2018-01-10T11:44:21.277Z,95137.91
2018-01-10T11:46:49.837Z,95130.89
2018-01-10T11:49:17.617Z,95134.08
2018-01-10T11:51:46.405Z,95132.50
2018-01-10T11:54:18.416Z,95124.53
2018-01-10T11:56:47.413Z,95126.77
2018-01-10T11:59:16.695Z,95111.45
2018-01-10T12:01:47.040Z,95114.86
2018-01-10T12:04:15.553Z,95115.98
2018-01-10T12:06:43.655Z,95105.66
2018-01-10T12:09:18.479Z,95114.20
2018-01-10T12:11:46.500Z,95110.58
2018-01-10T12:14:14.339Z,95109.35
2018-01-10T12:16:42.382Z,95108.00
2018-01-10T12:19:15.085Z,95103.05
2018-01-10T12:21:43.935Z,95102.05
2018-01-10T12:24:12.160Z,95092.00
2018-01-10T12:26:43.851Z,95092.48
2018-01-10T12:42:58.554Z,95061.25
2018-01-10T12:45:26.736Z,95070.27
2018-01-10T12:47:55.539Z,95072.47
2018-01-10T12:50:23.432Z,95072.91
2018-01-10T12:52:51.546Z,95091.94
2018-01-10T12:55:19.341Z,95094.37
2018-01-10T12:57:46.999Z,95098.12
2018-01-10T13:00:15.049Z,95098.38
2018-01-10T13:02:46.628Z,95116.16
2018-01-10T13:05:23.886Z,95129.30
2018-01-10T13:07:52.267Z,95119.27
2018-01-10T13:10:20.140Z,95117.80
2018-01-10T13:12:47.830Z,95124.06
2018-01-10T13:15:15.810Z,95111.98
2018-01-10T13:17:43.837Z,95117.97
2018-01-10T13:20:11.393Z,95123.16
2018-01-10T13:22:38.812Z,95118.80
2018-01-10T13:25:06.415Z,95116.09
2018-01-10T13:27:34.005Z,95122.17
2018-01-10T13:30:01.915Z,95132.20
2018-01-10T13:32:29.867Z,95130.22
2018-01-10T13:34:57.570Z,95136.63
2018-01-10T13:37:25.670Z,95149.05
2018-01-10T13:39:55.548Z,95130.28
2018-01-10T13:42:23.465Z,95124.88
2018-01-10T13:44:52.830Z,95128.19
2018-01-10T13:47:21.824Z,95127.08
2018-01-10T13:49:49.909Z,95113.70
2018-01-10T13:52:17.662Z,95132.66
2018-01-10T13:54:45.344Z,95124.31
2018-01-10T13:57:13.074Z,95117.42
2018-01-10T13:59:40.853Z,95112.77
2018-01-10T14:02:08.595Z,95111.58
2018-01-10T14:04:36.486Z,95111.39
2018-01-10T14:07:04.147Z,95094.63
2018-01-10T14:09:31.907Z,95084.85
2018-01-10T14:11:59.852Z,95072.73
2018-01-10T14:14:29.299Z,95069.53
2018-01-10T14:16:57.337Z,95061.05
2018-01-10T14:19:27.196Z,95053.45
2018-01-10T14:21:54.774Z,95050.98
2018-01-10T14:24:22.938Z,95042.31
2018-01-10T14:26:50.614Z,95040.45
2018-01-10T14:29:19.100Z,95041.34
2018-01-10T14:31:46.621Z,95041.31
2018-01-10T14:34:14.192Z,95042.08
2018-01-10T14:36:41.931Z,95032.30
2018-01-10T14:39:09.956Z,95036.21
2018-01-10T14:41:37.527Z,95027.55
2018-01-10T14:44:06.868Z,95027.20
2018-01-10T14:46:34.830Z,95021.49
2018-01-10T14:49:02.567Z,95023.99
2018-01-10T14:51:30.402Z,95025.44
2018-01-10T14:53:58.616Z,95021.09
2018-01-10T14:56:26.593Z,95000.56
2018-01-10T14:58:54.377Z,94991.92
2018-01-10T15:01:22.006Z,94986.47
2018-01-10T15:03:49.702Z,94987.86
2018-01-10T15:06:17.286Z,94984.27
2018-01-10T15:08:44.958Z,94982.67
2018-01-10T15:11:12.657Z,94975.29
2018-01-10T15:13:40.060Z,94977.52
2018-01-10T15:16:07.787Z,94981.75
2018-01-10T15:18:35.528Z,94968.64
2018-01-10T15:21:03.154Z,94973.98
2018-01-10T15:23:30.797Z,94980.04
2018-01-10T15:25:58.295Z,94971.45
2018-01-10T15:28:25.744Z,94976.05
2018-01-10T15:30:53.185Z,94970.16
2018-01-10T15:33:20.761Z,94964.19
2018-01-10T15:35:48.569Z,94959.44
2018-01-10T15:38:16.178Z,94949.94
2018-01-10T15:40:43.665Z,94945.09
2018-01-10T15:43:11.290Z,94940.09
2018-01-10T15:45:39.627Z,94944.75
2018-01-10T15:48:07.096Z,94939.13
2018-01-10T15:50:34.541Z,94938.11
2018-01-10T15:53:01.964Z,94936.55
2018-01-10T15:55:29.389Z,94927.03
2018-01-10T15:57:56.859Z,94921.98
2018-01-10T16:00:24.243Z,94927.36
2018-01-10T16:02:51.704Z,94921.17
2018-01-10T16:05:19.485Z,94911.02
2018-01-10T16:07:48.192Z,94915.66
2018-01-10T16:10:20.757Z,94914.52
2018-01-10T16:12:48.274Z,94919.41
2018-01-10T16:15:15.799Z,94930.53
2018-01-10T16:17:43.231Z,94919.52
2018-01-10T16:20:10.645Z,94916.31
2018-01-10T16:22:38.315Z,94911.35
2018-01-10T16:25:05.726Z,94909.05
2018-01-10T16:27:33.191Z,94912.09
2018-01-10T16:30:00.827Z,94910.30
2018-01-10T16:32:28.382Z,94915.37
2018-01-10T16:34:55.914Z,94903.16
2018-01-10T16:37:23.330Z,94905.52
2018-01-10T16:39:50.787Z,94903.41
2018-01-10T16:42:18.266Z,94912.47
2018-01-10T16:44:45.733Z,94908.91
2018-01-10T16:47:13.216Z,94909.78
2018-01-10T16:49:40.652Z,94905.06
2018-01-10T16:52:08.217Z,94915.53
2018-01-10T16:54:35.640Z,94911.70
2018-01-10T16:57:03.176Z,94903.53
2018-01-10T16:59:30.792Z,94907.06
2018-01-10T17:01:58.176Z,94915.45
2018-01-10T17:04:25.599Z,94906.54
2018-01-10T17:06:52.994Z,94895.97
2018-01-10T17:09:20.461Z,94899.88
2018-01-10T17:11:47.816Z,94908.25
2018-01-10T17:14:15.308Z,94912.28
2018-01-10T17:16:43.474Z,94924.55
2018-01-10T17:19:10.841Z,94928.07
2018-01-10T17:21:38.477Z,94918.14
2018-01-10T17:24:05.947Z,94909.89
2018-01-10T17:26:33.320Z,94915.83
2018-01-10T17:29:00.756Z,94902.56
2018-01-10T17:31:28.126Z,94896.44
2018-01-10T17:33:55.520Z,94905.20
2018-01-10T17:36:22.947Z,94907.55
2018-01-10T17:38:50.329Z,94899.91
2018-01-10T17:41:17.758Z,94893.94
2018-01-10T17:43:45.121Z,94894.01
2018-01-10T17:46:12.521Z,94898.12
2018-01-10T17:48:39.925Z,94892.00
2018-01-10T17:51:07.336Z,94890.78
2018-01-10T17:53:34.716Z,94894.48
2018-01-10T17:56:02.098Z,94884.62
2018-01-10T17:58:29.530Z,94883.34
2018-01-10T18:00:56.909Z,94883.62
2018-01-10T18:03:24.326Z,94875.72
2018-01-10T18:05:51.755Z,94872.12
2018-01-10T18:08:19.150Z,94876.09
2018-01-10T18:10:46.606Z,94881.18
2018-01-10T18:13:13.998Z,94882.30
2018-01-10T18:15:41.449Z,94878.34
2018-01-10T18:18:08.830Z,94876.06
2018-01-10T18:20:36.190Z,94877.80
2018-01-10T18:23:03.614Z,94883.17
2018-01-10T18:25:30.975Z,94874.41
2018-01-10T18:27:58.350Z,94866.67
2018-01-10T18:30:25.746Z,94865.37
2018-01-10T18:32:53.149Z,94872.81
2018-01-10T18:35:20.553Z,94870.38
2018-01-10T18:37:47.991Z,94862.27
2018-01-10T18:40:15.359Z,94863.85
2018-01-10T18:42:42.713Z,94856.28
2018-01-10T18:45:10.118Z,94843.91
2018-01-10T18:47:37.473Z,94863.73
2018-01-10T18:50:04.870Z,94853.56
2018-01-10T18:52:32.222Z,94857.64
2018-01-10T18:54:59.659Z,94849.95
2018-01-10T18:57:27.077Z,94851.67
2018-01-10T18:59:54.422Z,94834.02
2018-01-10T19:02:21.794Z,94841.61
2018-01-10T19:04:49.215Z,94824.33
2018-01-10T19:07:16.654Z,94839.78
2018-01-10T19:09:44.024Z,94849.65
2018-01-10T19:12:11.454Z,94851.52
2018-01-10T19:14:38.802Z,94847.34
2018-01-10T19:17:06.210Z,94843.65
2018-01-10T19:19:33.598Z,94838.39
2018-01-10T19:22:00.971Z,94834.83
2018-01-10T19:24:28.331Z,94830.52
2018-01-10T19:26:55.725Z,94833.29
2018-01-10T19:29:23.110Z,94848.67
2018-01-10T19:31:50.465Z,94836.40
2018-01-10T19:34:17.858Z,94826.20
2018-01-10T19:36:45.249Z,94824.66
2018-01-10T19:39:12.620Z,94826.79
2018-01-10T19:41:39.998Z,94817.42
2018-01-10T19:44:07.367Z,94814.53
2018-01-10T19:46:34.737Z,94813.08
2018-01-10T19:49:02.099Z,94811.94
2018-01-10T19:51:29.494Z,94808.09
2018-01-10T19:53:56.842Z,94808.87
2018-01-10T19:56:24.244Z,94811.99
2018-01-10T19:58:51.636Z,94800.45
2018-01-10T20:01:19.047Z,94810.09
2018-01-10T20:03:46.418Z,94797.05
2018-01-10T20:06:13.784Z,94790.90
2018-01-10T20:08:41.225Z,94789.98
2018-01-10T20:11:08.601Z,94792.81
2018-01-10T20:13:35.999Z,94783.04
2018-01-10T20:16:03.347Z,94788.20
2018-01-10T20:18:30.754Z,94782.02
2018-01-10T20:20:58.094Z,94776.12
2018-01-10T20:23:25.454Z,94771.36
2018-01-10T20:25:52.854Z,94779.40
2018-01-10T20:28:20.221Z,94768.81
2018-01-10T20:30:47.630Z,94763.15
2018-01-10T20:33:14.977Z,94764.70
2018-01-10T20:35:42.374Z,94752.30
2018-01-10T20:38:09.786Z,94755.13
2018-01-10T20:40:37.236Z,94757.22
2018-01-10T20:43:04.644Z,94745.30
2018-01-10T20:45:32.005Z,94743.60
2018-01-10T20:47:59.416Z,94742.52
2018-01-10T20:50:26.797Z,94739.11
2018-01-10T20:52:54.194Z,94736.02
2018-01-10T20:55:21.611Z,94740.67
2018-01-10T20:57:49.107Z,94741.70
2018-01-10T21:00:16.495Z,94745.14
2018-01-10T21:02:43.892Z,94736.39
2018-01-10T21:05:11.240Z,94717.22
2018-01-10T21:07:38.638Z,94741.16
2018-01-10T21:10:06.034Z,94740.62
2018-01-10T21:12:33.463Z,94733.06
2018-01-10T21:15:00.993Z,94736.13
2018-01-10T21:17:28.386Z,94737.48
2018-01-10T21:19:55.745Z,94735.64
2018-01-10T21:22:23.134Z,94731.64
2018-01-10T21:24:50.523Z,94741.86
2018-01-10T21:27:17.910Z,94731.86
2018-01-10T21:29:45.254Z,94737.76
2018-01-10T21:32:12.608Z,94734.39
2018-01-10T21:34:40.033Z,94741.24
2018-01-10T21:37:07.368Z,94738.74
2018-01-10T21:39:34.717Z,94720.33
2018-01-10T21:42:02.110Z,94729.34
2018-01-10T21:44:29.543Z,94713.89
2018-01-10T21:46:56.898Z,94718.76
2018-01-10T21:49:24.278Z,94709.88
2018-01-10T21:51:51.691Z,94719.16
2018-01-10T21:54:19.122Z,94717.47
2018-01-10T21:56:46.556Z,94715.99
2018-01-10T21:59:13.956Z,94714.89
2018-01-10T22:01:41.378Z,94685.44
2018-01-10T22:04:08.723Z,94712.63
2018-01-10T22:06:36.140Z,94702.20
2018-01-10T22:09:03.549Z,94704.84
2018-01-10T22:11:30.894Z,94705.45
2018-01-10T22:13:58.307Z,94694.12
2018-01-10T22:16:25.691Z,94694.20
2018-01-10T22:18:53.100Z,94691.75
2018-01-10T22:21:20.479Z,94674.39
2018-01-10T22:23:47.826Z,94677.38
2018-01-10T22:26:15.242Z,94680.33
2018-01-10T22:28:42.600Z,94672.81
2018-01-10T22:31:09.952Z,94660.23
2018-01-10T22:33:37.370Z,94666.77
2018-01-10T22:36:04.764Z,94662.66
2018-01-10T22:38:32.162Z,94657.41
2018-01-10T22:40:59.586Z,94651.72
2018-01-10T22:43:26.986Z,94650.81
2018-01-10T22:45:54.332Z,94652.26
2018-01-10T22:48:21.702Z,94649.25
2018-01-10T22:50:49.097Z,94647.44
2018-01-10T22:53:16.434Z,94652.88
2018-01-10T22:55:43.782Z,94642.29
2018-01-10T22:58:11.174Z,94637.05
2018-01-10T23:00:38.534Z,94633.70
2018-01-10T23:03:05.917Z,94626.52
2018-01-10T23:05:33.316Z,94625.50
2018-01-10T23:08:00.701Z,94631.20
2018-01-10T23:10:28.082Z,94613.70
2018-01-10T23:12:55.459Z,94634.00
2018-01-10T23:15:22.869Z,94623.16
2018-01-10T23:17:50.278Z,94629.90
2018-01-10T23:20:17.715Z,94621.63
2018-01-10T23:22:45.095Z,94620.12
2018-01-10T23:25:12.502Z,94615.95
2018-01-10T23:27:39.860Z,94607.98
2018-01-10T23:30:07.250Z,94602.94
2018-01-10T23:32:34.606Z,94598.20
2018-01-10T23:35:01.934Z,94591.13
2018-01-10T23:37:29.351Z,94604.25
2018-01-10T23:39:56.746Z,94600.31
2018-01-10T23:42:24.079Z,94597.87
2018-01-10T23:44:51.418Z,94592.97
2018-01-10T23:47:18.815Z,94592.97
2018-01-10T23:49:46.206Z,94588.22
2018-01-10T23:52:13.590Z,94576.51
2018-01-10T23:54:40.962Z,94569.59
2018-01-10T23:57:08.342Z,94572.23
2018-01-10T23:59:35.683Z,94572.80
